createdAt,value
2022-11-25T00:01:34.719Z,3.70
2022-11-25T00:04:03.343Z,3.70
2022-11-25T00:06:34.638Z,3.03
2022-11-25T00:09:05.511Z,3.83
2022-11-25T00:11:36.355Z,4.70
2022-11-25T00:14:05.064Z,5.00
2022-11-25T00:16:34.574Z,4.13
2022-11-25T00:19:02.625Z,6.90
2022-11-25T00:21:34.396Z,5.73
2022-11-25T00:24:06.386Z,4.80
2022-11-25T00:26:36.754Z,2.93
2022-11-25T00:29:07.637Z,9.30
2022-11-25T00:31:39.883Z,3.70
2022-11-25T00:34:08.231Z,7.37
2022-11-25T00:36:38.384Z,4.70
2022-11-25T00:39:09.040Z,2.50
2022-11-25T00:41:54.594Z,3.37
2022-11-25T00:44:40.254Z,16.27
2022-11-25T00:47:13.971Z,3.57
2022-11-25T00:49:44.376Z,5.90
2022-11-25T00:52:16.797Z,4.97
2022-11-25T00:54:45.693Z,3.67
2022-11-25T00:57:13.758Z,3.50
2022-11-25T00:59:41.888Z,3.43
2022-11-25T01:02:15.550Z,4.17
2022-11-25T01:04:44.165Z,3.57
2022-11-25T01:07:12.757Z,1.90
2022-11-25T01:09:40.848Z,4.80
2022-11-25T01:12:08.952Z,3.33
2022-11-25T01:14:37.616Z,3.40
2022-11-25T01:17:06.124Z,3.43
2022-11-25T01:19:38.275Z,3.00
2022-11-25T01:22:06.474Z,4.70
2022-11-25T01:24:34.961Z,4.03
2022-11-25T01:27:03.177Z,2.87
2022-11-25T01:29:31.474Z,4.77
2022-11-25T01:31:59.509Z,4.20
2022-11-25T01:34:31.820Z,4.77
2022-11-25T01:37:01.129Z,4.90
2022-11-25T01:39:32.845Z,3.33
2022-11-25T01:42:01.753Z,4.20
2022-11-25T01:44:31.791Z,3.93
2022-11-25T01:47:11.723Z,2.30
2022-11-25T01:49:43.448Z,2.60
2022-11-25T01:52:19.504Z,2.40
2022-11-25T01:54:56.623Z,2.77
2022-11-25T01:57:30.681Z,2.63
2022-11-25T02:00:01.884Z,4.10
2022-11-25T02:02:30.698Z,3.90
2022-11-25T02:04:59.735Z,2.37
2022-11-25T02:07:34.932Z,3.97
2022-11-25T02:10:07.169Z,4.30
2022-11-25T02:12:36.771Z,2.27
2022-11-25T02:15:07.006Z,2.30
2022-11-25T02:17:35.362Z,3.67
2022-11-25T02:20:08.728Z,4.00
2022-11-25T02:22:52.395Z,2.53
2022-11-25T02:25:25.874Z,5.50
2022-11-25T02:28:00.148Z,4.93
2022-11-25T02:30:28.345Z,2.47
2022-11-25T02:32:56.559Z,2.40
2022-11-25T02:35:32.229Z,4.07
2022-11-25T02:38:07.760Z,3.33
2022-11-25T02:40:45.314Z,2.40
2022-11-25T02:43:14.335Z,3.13
2022-11-25T02:46:00.028Z,2.77
2022-11-25T02:49:00.777Z,4.10
2022-11-25T02:51:25.045Z,3.40
2022-11-25T02:53:53.502Z,2.73
2022-11-25T02:56:25.670Z,5.23
2022-11-25T02:58:53.733Z,2.10
2022-11-25T03:01:22.251Z,2.47
2022-11-25T03:03:50.369Z,3.80
2022-11-25T03:06:18.352Z,4.70
2022-11-25T03:08:46.360Z,4.20
2022-11-25T03:11:14.517Z,4.83
2022-11-25T03:13:44.043Z,2.90
2022-11-25T03:16:12.659Z,3.10
2022-11-25T03:18:40.813Z,2.33
2022-11-25T03:21:09.122Z,5.83
2022-11-25T03:23:37.325Z,4.13
2022-11-25T03:26:07.844Z,3.10
2022-11-25T03:28:36.002Z,4.70
2022-11-25T03:31:05.567Z,2.07
2022-11-25T03:33:33.605Z,3.77
2022-11-25T03:36:01.763Z,2.93
2022-11-25T03:38:30.031Z,2.70
2022-11-25T03:40:58.246Z,2.93
2022-11-25T03:43:26.494Z,4.03
2022-11-25T03:45:54.830Z,3.10
2022-11-25T03:48:24.493Z,2.80
2022-11-25T03:50:52.506Z,3.70
2022-11-25T03:53:20.737Z,2.07
2022-11-25T03:55:49.646Z,2.50
2022-11-25T03:58:18.013Z,3.67
2022-11-25T04:00:46.217Z,2.33
2022-11-25T04:03:14.613Z,5.40
2022-11-25T04:05:44.592Z,1.70
2022-11-25T04:08:12.859Z,2.27
2022-11-25T04:10:41.043Z,3.10
2022-11-25T04:13:08.242Z,2.30
2022-11-25T04:15:36.359Z,1.90
2022-11-25T04:18:04.882Z,3.60
2022-11-25T04:20:33.123Z,2.80
2022-11-25T04:23:02.718Z,2.77
2022-11-25T04:25:30.968Z,3.70
2022-11-25T04:27:59.338Z,2.83
2022-11-25T04:30:27.747Z,5.47
2022-11-25T04:32:56.513Z,4.20
2022-11-25T04:35:25.106Z,1.80
2022-11-25T04:37:53.267Z,1.87
2022-11-25T04:40:23.015Z,2.33
2022-11-25T04:42:53.018Z,4.20
2022-11-25T04:45:24.058Z,2.70
2022-11-25T04:47:52.652Z,5.67
2022-11-25T04:50:24.054Z,3.70
2022-11-25T04:52:52.439Z,3.63
2022-11-25T04:55:21.952Z,3.20
2022-11-25T04:57:50.150Z,3.90
2022-11-25T05:00:19.198Z,4.30
2022-11-25T05:02:47.466Z,3.43
2022-11-25T05:05:15.731Z,2.60
2022-11-25T05:07:44.026Z,2.40
2022-11-25T05:10:12.512Z,2.30
2022-11-25T05:12:42.416Z,2.03
2022-11-25T05:15:11.937Z,1.50
2022-11-25T05:17:40.907Z,3.63
2022-11-25T05:20:11.224Z,2.13
2022-11-25T05:22:39.490Z,5.20
2022-11-25T05:25:08.906Z,5.70
2022-11-25T05:27:37.252Z,3.70
2022-11-25T05:30:09.154Z,2.43
2022-11-25T05:32:37.513Z,2.03
2022-11-25T05:35:06.233Z,2.40
2022-11-25T05:37:34.436Z,5.23
2022-11-25T05:40:02.562Z,2.00
2022-11-25T05:42:31.142Z,2.13
2022-11-25T05:44:59.340Z,2.50
2022-11-25T05:47:29.114Z,1.90
2022-11-25T05:49:57.286Z,2.00
2022-11-25T05:52:25.593Z,1.70
2022-11-25T05:54:57.275Z,1.33
2022-11-25T05:57:25.918Z,1.53
2022-11-25T05:59:54.174Z,1.90
2022-11-25T06:02:22.498Z,1.63
2022-11-25T06:04:52.299Z,1.93
2022-11-25T06:07:20.763Z,2.33
2022-11-25T06:09:49.050Z,2.37
2022-11-25T06:12:17.374Z,1.87
2022-11-25T06:14:45.629Z,1.87
2022-11-25T06:17:13.766Z,3.27
2022-11-25T06:19:42.085Z,4.63
2022-11-25T06:22:11.952Z,3.03
2022-11-25T06:24:40.141Z,3.03
2022-11-25T06:27:08.467Z,4.90
2022-11-25T06:29:36.854Z,3.40
2022-11-25T06:32:05.459Z,3.87
2022-11-25T06:34:33.951Z,3.73
2022-11-25T06:37:02.461Z,3.40
2022-11-25T06:39:31.984Z,2.77
2022-11-25T06:42:00.312Z,1.93
2022-11-25T06:44:28.644Z,2.27
2022-11-25T06:46:56.848Z,2.40
2022-11-25T06:49:25.122Z,4.67
2022-11-25T06:51:53.391Z,3.90
2022-11-25T06:54:21.731Z,9.63
2022-11-25T06:56:53.700Z,1.97
2022-11-25T06:59:22.451Z,1.93
2022-11-25T07:01:50.949Z,2.27
2022-11-25T07:04:19.164Z,2.40
2022-11-25T07:06:47.335Z,3.53
2022-11-25T07:09:15.629Z,2.77
2022-11-25T07:11:44.236Z,6.93
2022-11-25T07:14:16.183Z,5.00
2022-11-25T07:16:46.430Z,3.70
2022-11-25T07:19:17.474Z,3.83
2022-11-25T07:21:47.069Z,4.30
2022-11-25T07:24:18.138Z,5.87
2022-11-25T07:26:46.857Z,4.40
2022-11-25T07:29:44.310Z,7.43
2022-11-25T07:32:10.503Z,6.60
2022-11-25T07:34:39.244Z,10.43
2022-11-25T07:37:08.119Z,5.30
2022-11-25T07:39:36.863Z,6.37
2022-11-25T07:42:05.724Z,5.20
2022-11-25T07:44:35.393Z,6.70
2022-11-25T07:47:03.637Z,4.40
2022-11-25T07:49:31.817Z,7.80
2022-11-25T07:52:02.208Z,5.53
2022-11-25T07:54:30.912Z,8.00
2022-11-25T07:56:59.234Z,8.73
2022-11-25T07:59:27.527Z,10.57
2022-11-25T08:01:57.492Z,6.83
2022-11-25T08:04:25.782Z,7.93
2022-11-25T08:06:54.824Z,8.70
2022-11-25T08:09:25.220Z,12.57
2022-11-25T08:11:54.381Z,8.47
2022-11-25T08:14:22.660Z,12.13
2022-11-25T08:16:50.997Z,10.20
2022-11-25T08:19:20.547Z,11.73
2022-11-25T08:21:48.753Z,12.80
2022-11-25T08:24:19.663Z,10.20
2022-11-25T08:26:48.503Z,10.03
2022-11-25T08:29:19.982Z,8.70
2022-11-25T08:31:48.389Z,10.33
2022-11-25T08:34:22.042Z,9.37
2022-11-25T08:36:50.344Z,9.17
2022-11-25T08:39:50.696Z,9.07
2022-11-25T08:42:08.392Z,9.53
2022-11-25T08:44:37.205Z,6.73
2022-11-25T08:47:05.852Z,9.20
2022-11-25T08:49:40.768Z,9.53
2022-11-25T08:52:09.411Z,9.23
2022-11-25T08:54:37.824Z,10.30
2022-11-25T08:57:05.947Z,9.00
2022-11-25T08:59:34.474Z,7.90
2022-11-25T09:02:03.099Z,8.37
2022-11-25T09:04:31.446Z,7.17
2022-11-25T09:07:01.104Z,5.10
2022-11-25T09:09:29.267Z,5.60
2022-11-25T09:11:57.448Z,10.10
2022-11-25T09:14:25.825Z,8.40
2022-11-25T09:16:54.191Z,4.60
2022-11-25T09:19:22.346Z,11.13
2022-11-25T09:21:50.481Z,5.00
2022-11-25T09:24:20.038Z,9.67
2022-11-25T09:26:49.301Z,8.40
2022-11-25T09:29:17.488Z,11.37
2022-11-25T09:31:47.878Z,11.33
2022-11-25T09:34:19.589Z,6.00
2022-11-25T09:36:47.907Z,4.47
2022-11-25T09:39:15.940Z,9.27
2022-11-25T09:42:19.891Z,9.00
2022-11-25T09:45:24.512Z,11.70
2022-11-25T09:48:03.857Z,7.20
2022-11-25T09:50:46.913Z,14.63
2022-11-25T09:53:35.458Z,5.93
2022-11-25T09:56:07.708Z,7.60
2022-11-25T09:58:43.008Z,8.60
2022-11-25T10:01:18.827Z,15.83
2022-11-25T10:03:51.472Z,8.10
2022-11-25T10:06:24.812Z,6.00
2022-11-25T10:08:56.710Z,7.90
2022-11-25T10:11:41.329Z,6.87
2022-11-25T10:14:20.690Z,9.17
2022-11-25T10:16:53.400Z,10.87
2022-11-25T10:19:38.299Z,9.30
2022-11-25T10:22:21.886Z,4.90
2022-11-25T10:24:53.502Z,5.57
2022-11-25T10:27:30.020Z,10.93
2022-11-25T10:30:06.193Z,7.40
2022-11-25T10:32:42.016Z,9.07
2022-11-25T10:35:22.615Z,8.50
2022-11-25T10:37:55.066Z,17.20
2022-11-25T10:40:23.176Z,6.67
2022-11-25T10:42:51.295Z,9.03
2022-11-25T10:45:24.948Z,11.57
2022-11-25T10:48:11.401Z,8.37
2022-11-25T10:50:56.670Z,15.37
2022-11-25T10:53:30.009Z,10.03
2022-11-25T10:56:02.152Z,13.93
2022-11-25T10:58:34.534Z,15.53
2022-11-25T11:01:25.536Z,16.33
2022-11-25T11:03:57.327Z,10.70
2022-11-25T11:06:36.553Z,16.73
2022-11-25T11:09:05.487Z,11.00
2022-11-25T11:11:33.974Z,13.47
2022-11-25T11:14:15.314Z,12.43
2022-11-25T11:16:51.410Z,9.10
2022-11-25T11:19:25.291Z,11.57
2022-11-25T11:21:53.995Z,11.93
2022-11-25T11:24:31.906Z,15.00
2022-11-25T11:27:06.918Z,11.40
2022-11-25T11:29:35.465Z,10.13
2022-11-25T11:32:06.968Z,11.30
2022-11-25T11:34:59.756Z,9.33
2022-11-25T11:37:40.743Z,7.70
2022-11-25T11:40:25.328Z,9.57
2022-11-25T11:43:05.408Z,9.03
2022-11-25T11:45:51.855Z,13.63
2022-11-25T11:48:28.975Z,7.53
2022-11-25T11:51:04.348Z,12.63
2022-11-25T11:53:42.990Z,6.17
2022-11-25T11:56:37.251Z,11.53
2022-11-25T11:59:40.150Z,6.33
2022-11-25T12:02:23.779Z,5.90
2022-11-25T12:05:05.463Z,7.13
2022-11-25T12:07:40.677Z,10.80
2022-11-25T12:10:20.500Z,8.43
2022-11-25T12:12:56.145Z,9.60
2022-11-25T12:15:40.873Z,6.80
2022-11-25T12:18:22.217Z,7.93
2022-11-25T12:20:58.648Z,4.93
2022-11-25T12:23:36.049Z,8.90
2022-11-25T12:26:14.177Z,6.03
2022-11-25T12:28:50.010Z,6.43
2022-11-25T12:31:21.858Z,6.20
2022-11-25T12:34:03.329Z,5.83
2022-11-25T12:36:37.053Z,4.53
2022-11-25T12:39:13.332Z,5.83
2022-11-25T12:41:46.231Z,5.53
2022-11-25T12:44:20.534Z,10.40
2022-11-25T12:46:51.008Z,11.00
2022-11-25T12:49:23.483Z,4.77
2022-11-25T12:52:19.697Z,5.43
2022-11-25T12:55:07.270Z,3.70
2022-11-25T12:58:21.116Z,4.70
2022-11-25T13:01:22.118Z,7.17
2022-11-25T13:04:25.450Z,7.00
2022-11-25T13:07:16.244Z,5.37
2022-11-25T13:10:29.011Z,4.83
2022-11-25T13:13:34.207Z,5.33
2022-11-25T13:16:05.588Z,8.87
2022-11-25T13:18:35.326Z,4.70
2022-11-25T13:21:10.730Z,5.53
2022-11-25T13:23:53.113Z,5.83
2022-11-25T13:26:50.479Z,3.27
2022-11-25T13:30:05.020Z,7.50
2022-11-25T13:32:42.926Z,6.93
2022-11-25T13:35:50.580Z,3.90
2022-11-25T13:39:12.059Z,6.03
2022-11-25T13:41:50.467Z,5.50
2022-11-25T13:44:32.192Z,4.73
2022-11-25T13:47:25.557Z,7.53
2022-11-25T13:49:56.052Z,5.93
2022-11-25T13:52:37.346Z,4.70
2022-11-25T13:55:24.784Z,4.67
2022-11-25T13:58:17.452Z,6.30
2022-11-25T14:01:03.584Z,5.73
2022-11-25T14:03:53.722Z,5.00
2022-11-25T14:06:58.029Z,5.47
2022-11-25T14:09:50.494Z,10.90
2022-11-25T14:12:44.715Z,5.00
2022-11-25T14:15:51.494Z,4.00
2022-11-25T14:19:35.040Z,8.00
2022-11-25T14:32:03.847Z,7.17
2022-11-25T14:34:38.237Z,6.30
2022-11-25T14:37:15.147Z,3.40
2022-11-25T14:39:50.850Z,4.50
2022-11-25T14:42:22.714Z,20.80
2022-11-25T14:44:55.678Z,7.70
2022-11-25T14:47:26.771Z,8.40
2022-11-25T14:52:47.583Z,7.20
2022-11-25T14:55:26.004Z,9.77
2022-11-25T14:57:54.390Z,7.40
2022-11-25T15:00:23.379Z,7.88
2022-11-25T15:02:58.854Z,4.40
2022-11-25T15:05:32.643Z,4.63
2022-11-25T15:08:05.015Z,3.70
2022-11-25T15:10:37.724Z,3.83
2022-11-25T15:13:15.526Z,9.53
2022-11-25T15:15:46.995Z,8.50
2022-11-25T15:18:21.208Z,6.63
2022-11-25T15:20:54.616Z,4.83
2022-11-25T15:23:31.744Z,9.43
2022-11-25T15:26:01.038Z,4.37
2022-11-25T15:28:35.043Z,3.43
2022-11-25T15:31:09.482Z,7.53
2022-11-25T15:33:39.404Z,6.30
2022-11-25T15:36:08.291Z,3.23
2022-11-25T15:38:40.979Z,6.93
2022-11-25T15:41:21.044Z,3.87
2022-11-25T15:43:52.021Z,5.00
2022-11-25T15:46:20.162Z,4.40
2022-11-25T15:48:52.652Z,4.17
2022-11-25T15:51:38.522Z,4.13
2022-11-25T15:54:16.647Z,5.77
2022-11-25T15:56:49.902Z,4.97
2022-11-25T15:59:47.840Z,4.87
2022-11-25T16:02:40.175Z,4.10
2022-11-25T16:05:31.927Z,6.40
2022-11-25T16:08:04.066Z,4.00
2022-11-25T16:10:35.783Z,4.37
2022-11-25T16:13:29.859Z,3.90
2022-11-25T16:16:05.833Z,3.30
2022-11-25T16:18:40.684Z,4.03
2022-11-25T16:21:13.336Z,3.83
2022-11-25T16:23:45.662Z,5.60
2022-11-25T16:26:19.214Z,4.67
2022-11-25T16:28:56.847Z,3.53
2022-11-25T16:31:25.553Z,3.80
2022-11-25T16:34:02.918Z,4.67
2022-11-25T16:36:32.252Z,4.67
2022-11-25T16:39:00.252Z,5.17
2022-11-25T16:41:28.366Z,5.80
2022-11-25T16:43:58.369Z,4.47
2022-11-25T16:46:27.981Z,5.53
2022-11-25T16:48:56.020Z,5.33
2022-11-25T16:51:25.709Z,3.90
2022-11-25T16:53:55.062Z,5.33
2022-11-25T16:56:28.163Z,5.93
2022-11-25T16:58:56.532Z,6.03
2022-11-25T17:01:28.786Z,5.10
2022-11-25T17:03:57.252Z,4.80
2022-11-25T17:06:27.895Z,5.07
2022-11-25T17:08:57.331Z,3.90
2022-11-25T17:11:30.589Z,5.30
2022-11-25T17:14:03.943Z,4.50
2022-11-25T17:16:32.201Z,4.13
2022-11-25T17:19:01.314Z,4.93
2022-11-25T17:21:29.559Z,3.27
2022-11-25T17:24:03.505Z,4.97
2022-11-25T17:26:38.821Z,6.28
2022-11-25T17:29:14.209Z,5.27
2022-11-25T17:31:42.885Z,3.60
2022-11-25T17:34:16.390Z,7.33
2022-11-25T17:36:45.966Z,5.40
2022-11-25T17:39:16.232Z,4.57
2022-11-25T17:41:47.584Z,3.97
2022-11-25T17:44:25.954Z,7.47
2022-11-25T17:46:55.025Z,5.03
2022-11-25T17:49:23.731Z,4.80
2022-11-25T17:51:52.423Z,4.70
2022-11-25T17:54:21.813Z,3.10
2022-11-25T17:56:52.498Z,3.53
2022-11-25T17:59:26.935Z,5.10
2022-11-25T18:01:56.376Z,9.07
2022-11-25T18:04:27.002Z,5.83
2022-11-25T18:06:55.683Z,7.87
2022-11-25T18:09:25.379Z,5.43
2022-11-25T18:11:56.023Z,5.73
2022-11-25T18:14:29.041Z,7.50
2022-11-25T18:16:59.284Z,4.70
2022-11-25T18:19:27.532Z,4.90
2022-11-25T18:21:59.902Z,12.63
2022-11-25T18:24:29.427Z,7.30
2022-11-25T18:26:58.072Z,7.43
2022-11-25T18:29:27.804Z,8.30
2022-11-25T18:31:59.348Z,9.20
2022-11-25T18:34:27.842Z,8.50
2022-11-25T18:36:56.338Z,11.53
2022-11-25T18:39:24.539Z,5.10
2022-11-25T18:41:58.186Z,10.20
2022-11-25T18:44:29.174Z,6.93
2022-11-25T18:46:57.422Z,9.80
2022-11-25T18:49:25.617Z,3.90
2022-11-25T18:51:53.586Z,8.47
2022-11-25T18:54:21.744Z,5.67
2022-11-25T18:56:53.308Z,6.93
2022-11-25T18:59:27.850Z,8.87
2022-11-25T19:01:56.364Z,9.77
2022-11-25T19:04:24.773Z,9.23
2022-11-25T19:06:53.236Z,9.50
2022-11-25T19:09:21.318Z,8.60
2022-11-25T19:11:53.776Z,12.70
2022-11-25T19:14:29.983Z,20.60
2022-11-25T19:17:03.200Z,10.50
2022-11-25T19:19:31.711Z,14.23
2022-11-25T19:22:01.541Z,21.00
2022-11-25T19:24:30.212Z,12.20
2022-11-25T19:26:59.718Z,8.03
2022-11-25T19:29:41.831Z,10.90
2022-11-25T19:32:20.651Z,7.77
2022-11-25T19:34:52.348Z,8.30
2022-11-25T19:37:23.129Z,11.73
2022-11-25T19:39:52.759Z,9.40
2022-11-25T19:42:24.612Z,21.43
2022-11-25T19:44:53.256Z,14.67
2022-11-25T19:47:24.630Z,9.50
2022-11-25T19:49:57.525Z,7.47
2022-11-25T19:52:34.963Z,7.30
2022-11-25T19:55:03.660Z,11.83
2022-11-25T19:57:33.093Z,10.00
2022-11-25T20:00:01.179Z,14.20
2022-11-25T20:02:30.682Z,8.40
2022-11-25T20:04:59.022Z,9.07
2022-11-25T20:07:30.017Z,5.43
2022-11-25T20:10:08.825Z,10.63
2022-11-25T20:12:38.264Z,12.77
2022-11-25T20:15:08.221Z,7.80
2022-11-25T20:17:38.684Z,9.63
2022-11-25T20:20:13.825Z,11.30
2022-11-25T20:23:00.259Z,10.10
2022-11-25T20:25:28.893Z,5.93
2022-11-25T20:27:58.593Z,6.50
2022-11-25T20:30:29.599Z,8.40
2022-11-25T20:32:57.694Z,8.67
2022-11-25T20:35:27.143Z,9.17
2022-11-25T20:37:57.796Z,5.57
2022-11-25T20:40:33.464Z,7.30
2022-11-25T20:43:03.023Z,7.97
2022-11-25T20:45:31.286Z,9.97
2022-11-25T20:47:59.462Z,9.63
2022-11-25T20:50:31.429Z,5.93
2022-11-25T20:52:59.460Z,4.80
2022-11-25T20:55:27.668Z,6.83
2022-11-25T20:57:55.787Z,8.67
2022-11-25T21:00:28.973Z,3.87
2022-11-25T21:02:57.900Z,8.00
2022-11-25T21:05:28.403Z,6.27
2022-11-25T21:07:56.908Z,5.80
2022-11-25T21:10:28.327Z,6.57
2022-11-25T21:12:57.751Z,6.80
2022-11-25T21:15:29.236Z,6.40
2022-11-25T21:17:58.221Z,7.47
2022-11-25T21:20:26.389Z,7.53
2022-11-25T21:22:58.419Z,7.00
2022-11-25T21:25:27.341Z,10.40
2022-11-25T21:27:55.544Z,4.80
2022-11-25T21:30:30.684Z,4.00
2022-11-25T21:33:01.005Z,3.70
2022-11-25T21:35:33.207Z,6.80
2022-11-25T21:38:04.823Z,6.40
2022-11-25T21:40:38.160Z,5.80
2022-11-25T21:43:18.411Z,10.93
2022-11-25T21:45:54.231Z,6.10
2022-11-25T21:48:25.645Z,5.33
2022-11-25T21:50:54.903Z,5.77
2022-11-25T21:53:23.053Z,9.97
2022-11-25T21:55:51.382Z,7.10
2022-11-25T21:58:22.710Z,6.47
2022-11-25T22:00:55.127Z,7.13
2022-11-25T22:03:29.511Z,5.70
2022-11-25T22:05:57.734Z,5.20
2022-11-25T22:08:25.966Z,5.20
2022-11-25T22:10:56.069Z,5.10
2022-11-25T22:13:30.155Z,10.97
2022-11-25T22:16:01.553Z,5.10
2022-11-25T22:18:33.378Z,13.60
2022-11-25T22:21:02.558Z,3.60
2022-11-25T22:23:30.857Z,4.50
2022-11-25T22:25:59.585Z,3.10
2022-11-25T22:28:29.880Z,5.50
2022-11-25T22:31:04.080Z,5.53
2022-11-25T22:33:35.580Z,3.90
2022-11-25T22:36:04.440Z,6.00
2022-11-25T22:38:33.068Z,4.70
2022-11-25T22:41:04.722Z,5.20
2022-11-25T22:43:37.307Z,3.50
2022-11-25T22:46:07.145Z,5.10
2022-11-25T22:48:37.657Z,5.40
2022-11-25T22:51:07.071Z,4.30
2022-11-25T22:53:35.345Z,4.60
2022-11-25T22:56:03.596Z,4.97
2022-11-25T22:58:31.810Z,5.97
2022-11-25T23:00:59.979Z,6.27
2022-11-25T23:03:30.833Z,3.10
2022-11-25T23:05:59.092Z,4.40
2022-11-25T23:08:31.518Z,4.57
2022-11-25T23:10:59.813Z,3.70
2022-11-25T23:13:28.310Z,7.40
2022-11-25T23:15:59.751Z,3.70
2022-11-25T23:18:38.211Z,4.37
2022-11-25T23:21:11.287Z,3.47
2022-11-25T23:23:39.595Z,5.60
2022-11-25T23:26:11.220Z,3.83
2022-11-25T23:28:39.473Z,4.97
2022-11-25T23:31:08.139Z,3.93
2022-11-25T23:33:40.846Z,3.93
2022-11-25T23:36:12.322Z,5.80
2022-11-25T23:38:45.402Z,4.23
2022-11-25T23:41:16.550Z,4.57
2022-11-25T23:43:45.323Z,5.00
2022-11-25T23:46:15.859Z,4.50
2022-11-25T23:48:57.205Z,3.80
2022-11-25T23:51:27.392Z,4.50
2022-11-25T23:53:57.018Z,3.37
2022-11-25T23:56:27.079Z,4.47
2022-11-25T23:58:55.481Z,3.70
